createdAt,value
2023-02-21T00:01:42.737Z,65
2023-02-21T00:04:12.881Z,67
2023-02-21T00:06:42.992Z,60
2023-02-21T00:09:13.333Z,59
2023-02-21T00:11:43.917Z,60
2023-02-21T00:14:14.974Z,55
2023-02-21T00:16:45.412Z,60
2023-02-21T00:19:15.744Z,60
2023-02-21T00:21:45.958Z,61
2023-02-21T00:24:16.221Z,68
2023-02-21T00:26:46.882Z,57
2023-02-21T00:29:17.257Z,63
2023-02-21T00:31:47.696Z,63
2023-02-21T00:34:18.067Z,62
2023-02-21T00:36:53.471Z,62
2023-02-21T00:39:18.654Z,63
2023-02-21T00:41:49.058Z,60
2023-02-21T00:44:19.213Z,57
2023-02-21T00:46:49.597Z,62
2023-02-21T00:49:20.182Z,65
2023-02-21T00:51:50.260Z,55
2023-02-21T00:54:21.210Z,58
2023-02-21T00:56:51.622Z,58
2023-02-21T00:59:21.996Z,59
2023-02-21T01:01:52.554Z,62
2023-02-21T01:04:23.077Z,64
2023-02-21T01:06:53.656Z,64
2023-02-21T01:09:23.737Z,58
2023-02-21T01:11:54.293Z,62
2023-02-21T01:14:26.350Z,58
2023-02-21T01:16:57.335Z,61
2023-02-21T01:19:25.592Z,57
2023-02-21T01:21:56.056Z,62
2023-02-21T01:24:26.268Z,65
2023-02-21T01:26:56.703Z,61
2023-02-21T01:29:26.845Z,58
2023-02-21T01:31:57.771Z,52
2023-02-21T01:34:27.824Z,53
2023-02-21T01:36:58.498Z,49
2023-02-21T01:39:28.527Z,51
2023-02-21T01:41:58.874Z,54
2023-02-21T01:44:29.258Z,45
2023-02-21T01:46:59.596Z,49
2023-02-21T01:49:30.434Z,52
2023-02-21T01:52:00.527Z,51
2023-02-21T01:54:30.968Z,43
2023-02-21T01:57:01.546Z,49
2023-02-21T01:59:32.029Z,46
2023-02-21T02:02:02.320Z,50
2023-02-21T02:04:32.939Z,47
2023-02-21T02:07:03.270Z,53
2023-02-21T02:09:34.041Z,47
2023-02-21T02:12:04.197Z,46
2023-02-21T02:14:34.491Z,44
2023-02-21T02:17:04.807Z,53
2023-02-21T02:19:35.561Z,48
2023-02-21T02:22:05.533Z,45
2023-02-21T02:24:35.726Z,42
2023-02-21T02:27:06.570Z,46
2023-02-21T02:29:37.082Z,45
2023-02-21T02:32:07.491Z,50
2023-02-21T02:34:37.684Z,44
2023-02-21T02:37:08.402Z,49
2023-02-21T02:39:39.060Z,53
2023-02-21T02:42:09.965Z,48
2023-02-21T02:44:40.682Z,55
2023-02-21T02:47:10.926Z,47
2023-02-21T02:49:41.076Z,50
2023-02-21T02:52:11.665Z,47
2023-02-21T02:54:42.552Z,46
2023-02-21T02:57:13.286Z,50
2023-02-21T02:59:43.688Z,49
2023-02-21T03:02:14.431Z,48
2023-02-21T03:04:44.826Z,49
2023-02-21T03:07:14.850Z,51
2023-02-21T03:09:44.901Z,47
2023-02-21T03:12:15.296Z,51
2023-02-21T03:14:45.642Z,52
2023-02-21T03:17:16.239Z,51
2023-02-21T03:19:46.569Z,47
2023-02-21T03:22:16.693Z,46
2023-02-21T03:24:47.537Z,49
2023-02-21T03:27:17.898Z,49
2023-02-21T03:29:48.218Z,48
2023-02-21T03:32:18.870Z,42
2023-02-21T03:34:48.972Z,50
2023-02-21T03:37:19.238Z,46
2023-02-21T03:39:49.288Z,43
2023-02-21T03:42:20.109Z,46
2023-02-21T03:44:50.051Z,51
2023-02-21T03:47:20.146Z,48
2023-02-21T03:49:50.722Z,46
2023-02-21T03:52:20.832Z,39
2023-02-21T03:54:51.278Z,46
2023-02-21T03:57:21.355Z,46
2023-02-21T03:59:51.857Z,50
2023-02-21T04:02:22.490Z,42
2023-02-21T04:04:52.801Z,44
2023-02-21T04:07:23.437Z,42
2023-02-21T04:09:54.114Z,39
2023-02-21T04:12:24.259Z,40
2023-02-21T04:14:54.374Z,48
2023-02-21T04:17:25.001Z,45
2023-02-21T04:19:55.120Z,43
2023-02-21T04:22:25.393Z,45
2023-02-21T04:24:55.923Z,45
2023-02-21T04:27:26.185Z,44
2023-02-21T04:29:56.273Z,44
2023-02-21T04:32:27.070Z,40
2023-02-21T04:34:57.016Z,41
2023-02-21T04:37:27.141Z,36
2023-02-21T04:39:57.668Z,44
2023-02-21T04:42:28.259Z,44
2023-02-21T04:45:00.448Z,40
2023-02-21T04:47:28.720Z,48
2023-02-21T04:49:59.249Z,45
2023-02-21T04:52:29.620Z,39
2023-02-21T04:55:00.487Z,41
2023-02-21T04:57:31.183Z,46
2023-02-21T05:00:01.879Z,44
2023-02-21T05:02:32.517Z,47
2023-02-21T05:05:02.900Z,42
2023-02-21T05:07:33.181Z,37
2023-02-21T05:10:04.034Z,44
2023-02-21T05:12:34.391Z,46
2023-02-21T05:15:05.109Z,40
2023-02-21T05:17:35.796Z,40
2023-02-21T05:20:05.901Z,41
2023-02-21T05:22:36.455Z,40
2023-02-21T05:25:06.716Z,46
2023-02-21T05:27:37.337Z,44
2023-02-21T05:30:07.923Z,39
2023-02-21T05:32:38.714Z,44
2023-02-21T05:35:09.570Z,45
2023-02-21T05:37:40.263Z,39
2023-02-21T05:40:11.003Z,42
2023-02-21T05:42:41.323Z,42
2023-02-21T05:45:11.839Z,42
2023-02-21T05:47:42.110Z,38
2023-02-21T05:50:12.475Z,48
2023-02-21T05:52:42.501Z,46
2023-02-21T05:55:13.175Z,46
2023-02-21T05:57:44.042Z,45
2023-02-21T06:00:14.617Z,45
2023-02-21T06:02:44.980Z,49
2023-02-21T06:05:14.977Z,42
2023-02-21T06:07:45.015Z,47
2023-02-21T06:10:15.224Z,50
2023-02-21T06:12:45.594Z,42
2023-02-21T06:15:16.248Z,51
2023-02-21T06:17:46.244Z,50
2023-02-21T06:20:16.349Z,51
2023-02-21T06:22:46.848Z,51
2023-02-21T06:25:17.271Z,49
2023-02-21T06:27:47.854Z,50
2023-02-21T06:30:18.606Z,51
2023-02-21T06:32:49.229Z,48
2023-02-21T06:35:19.606Z,50
2023-02-21T06:37:49.989Z,59
2023-02-21T06:40:20.894Z,51
2023-02-21T06:42:51.196Z,49
2023-02-21T06:45:21.334Z,56
2023-02-21T06:47:51.933Z,51
2023-02-21T06:50:22.065Z,50
2023-02-21T06:52:52.528Z,58
2023-02-21T06:55:25.300Z,49
2023-02-21T06:57:53.089Z,46
2023-02-21T07:00:23.414Z,49
2023-02-21T07:02:53.795Z,51
2023-02-21T07:05:24.731Z,49
2023-02-21T07:07:55.127Z,45
2023-02-21T07:10:25.629Z,57
2023-02-21T07:12:55.685Z,54
2023-02-21T07:15:26.303Z,51
2023-02-21T07:17:56.817Z,52
2023-02-21T07:20:27.756Z,53
2023-02-21T07:22:58.536Z,52
2023-02-21T07:25:29.063Z,46
2023-02-21T07:27:59.792Z,52
2023-02-21T07:30:29.929Z,57
2023-02-21T07:33:00.381Z,49
2023-02-21T07:35:30.931Z,50
2023-02-21T07:38:01.213Z,48
2023-02-21T07:40:31.307Z,55
2023-02-21T07:43:02.083Z,53
2023-02-21T07:45:32.196Z,49
2023-02-21T07:48:02.770Z,46
2023-02-21T07:50:33.650Z,48
2023-02-21T07:53:04.443Z,52
2023-02-21T07:55:35.004Z,50
2023-02-21T07:58:05.021Z,51
2023-02-21T08:00:35.999Z,55
2023-02-21T08:03:05.711Z,47
2023-02-21T08:05:35.967Z,50
2023-02-21T08:08:06.504Z,45
2023-02-21T08:10:37.367Z,51
2023-02-21T08:13:07.810Z,49
2023-02-21T08:15:37.875Z,55
2023-02-21T08:18:08.156Z,51
2023-02-21T08:20:38.511Z,49
2023-02-21T08:23:09.284Z,48
2023-02-21T08:25:40.096Z,57
2023-02-21T08:28:10.402Z,54
2023-02-21T08:30:41.216Z,53
2023-02-21T08:33:11.747Z,51
2023-02-21T08:35:41.784Z,52
2023-02-21T08:38:11.919Z,52
2023-02-21T08:40:42.014Z,55
2023-02-21T08:43:12.548Z,59
2023-02-21T08:45:43.274Z,52
2023-02-21T08:48:13.807Z,51
2023-02-21T08:50:44.413Z,56
2023-02-21T08:53:15.520Z,55
2023-02-21T08:55:45.339Z,53
2023-02-21T08:58:15.504Z,58
2023-02-21T09:00:46.117Z,54
2023-02-21T09:03:16.374Z,48
2023-02-21T09:05:46.805Z,54
2023-02-21T09:08:17.152Z,50
2023-02-21T09:10:48.097Z,56
2023-02-21T09:13:18.586Z,55
2023-02-21T09:15:49.195Z,53
2023-02-21T09:18:19.784Z,48
2023-02-21T09:20:50.487Z,51
2023-02-21T09:23:21.280Z,46
2023-02-21T09:25:51.575Z,54
2023-02-21T09:28:22.254Z,49
2023-02-21T09:30:52.523Z,51
2023-02-21T09:33:25.109Z,46
2023-02-21T09:35:53.627Z,43
2023-02-21T09:38:23.903Z,53
2023-02-21T09:40:53.905Z,50
2023-02-21T09:43:24.714Z,54
2023-02-21T09:45:55.118Z,53
2023-02-21T09:48:25.811Z,55
2023-02-21T09:50:56.003Z,47
2023-02-21T09:53:26.292Z,51
2023-02-21T09:55:57.058Z,49
2023-02-21T09:58:27.760Z,53
2023-02-21T10:00:57.837Z,49
2023-02-21T10:03:28.319Z,54
2023-02-21T10:05:58.437Z,49
2023-02-21T10:08:29.321Z,49
2023-02-21T10:10:59.960Z,44
2023-02-21T10:13:30.076Z,52
2023-02-21T10:16:00.248Z,48
2023-02-21T10:18:30.390Z,54
2023-02-21T10:21:00.600Z,53
2023-02-21T10:23:32.519Z,46
2023-02-21T10:26:00.966Z,56
2023-02-21T10:28:31.563Z,51
2023-02-21T10:31:02.062Z,56
2023-02-21T10:33:32.459Z,55
2023-02-21T10:36:02.980Z,49
2023-02-21T10:38:33.536Z,51
2023-02-21T10:41:04.040Z,54
2023-02-21T10:43:34.738Z,56
2023-02-21T10:46:05.346Z,51
2023-02-21T10:48:35.534Z,56
2023-02-21T10:51:06.105Z,56
2023-02-21T10:53:36.932Z,56
2023-02-21T10:56:07.464Z,56
2023-02-21T10:58:38.000Z,55
2023-02-21T11:01:08.563Z,52
2023-02-21T11:03:39.135Z,58
2023-02-21T11:06:09.262Z,61
2023-02-21T11:08:39.843Z,56
2023-02-21T11:11:10.329Z,56
2023-02-21T11:13:40.842Z,57
2023-02-21T11:16:10.887Z,54
2023-02-21T11:18:41.213Z,55
2023-02-21T11:21:11.699Z,54
2023-02-21T11:23:42.026Z,54
2023-02-21T11:26:12.624Z,55
2023-02-21T11:28:42.993Z,56
2023-02-21T11:31:13.679Z,53
2023-02-21T11:33:43.773Z,54
2023-02-21T11:36:14.436Z,58
2023-02-21T11:38:44.841Z,56
2023-02-21T11:41:15.409Z,55
2023-02-21T11:43:47.903Z,46
2023-02-21T11:46:16.586Z,59
2023-02-21T11:48:46.328Z,53
2023-02-21T11:51:17.234Z,48
2023-02-21T11:53:47.767Z,52
2023-02-21T11:56:18.126Z,50
2023-02-21T11:58:48.619Z,57
2023-02-21T12:01:19.158Z,57
2023-02-21T12:03:49.804Z,47
2023-02-21T12:06:19.853Z,53
2023-02-21T12:08:50.773Z,46
2023-02-21T12:11:21.070Z,53
2023-02-21T12:13:51.572Z,52
2023-02-21T12:16:21.740Z,44
2023-02-21T12:18:51.860Z,49
2023-02-21T12:21:22.183Z,52
2023-02-21T12:23:52.170Z,55
2023-02-21T12:26:22.997Z,47
2023-02-21T12:28:53.015Z,50
2023-02-21T12:31:23.311Z,47
2023-02-21T12:33:53.649Z,47
2023-02-21T12:36:24.444Z,45
2023-02-21T12:38:54.636Z,41
2023-02-21T12:41:24.758Z,44
2023-02-21T12:43:55.178Z,39
2023-02-21T12:46:25.418Z,48
2023-02-21T12:48:56.025Z,45
2023-02-21T12:51:26.685Z,50
2023-02-21T12:53:56.875Z,47
2023-02-21T12:56:27.740Z,45
2023-02-21T12:58:58.346Z,47
2023-02-21T13:01:28.570Z,51
2023-02-21T13:03:58.511Z,48
2023-02-21T13:06:31.430Z,47
2023-02-21T13:08:59.349Z,43
2023-02-21T13:11:30.112Z,46
2023-02-21T13:14:00.153Z,48
2023-02-21T13:16:30.522Z,43
2023-02-21T13:19:01.216Z,49
2023-02-21T13:21:31.995Z,46
2023-02-21T13:24:02.892Z,44
2023-02-21T13:26:33.560Z,45
2023-02-21T13:29:03.862Z,47
2023-02-21T13:31:34.614Z,49
2023-02-21T13:34:05.347Z,44
2023-02-21T13:36:35.535Z,50
2023-02-21T13:39:05.597Z,48
2023-02-21T13:41:36.055Z,43
2023-02-21T13:44:06.148Z,44
2023-02-21T13:46:36.567Z,44
2023-02-21T13:49:07.351Z,43
2023-02-21T13:51:37.493Z,41
2023-02-21T13:54:07.966Z,48
2023-02-21T13:56:38.364Z,40
2023-02-21T13:59:09.114Z,45
2023-02-21T14:01:39.907Z,42
2023-02-21T14:04:10.808Z,40
2023-02-21T14:06:40.850Z,36
2023-02-21T14:09:11.283Z,39
2023-02-21T14:11:41.411Z,42
2023-02-21T14:14:12.221Z,43
2023-02-21T14:16:42.647Z,40
2023-02-21T14:19:13.490Z,33
2023-02-21T14:21:43.841Z,40
2023-02-21T14:24:14.080Z,38
2023-02-21T14:26:44.787Z,35
2023-02-21T14:29:15.630Z,37
2023-02-21T14:31:45.850Z,38
2023-02-21T14:34:15.808Z,38
2023-02-21T14:36:46.113Z,42
2023-02-21T14:39:16.466Z,40
2023-02-21T14:41:47.151Z,44
2023-02-21T14:44:17.365Z,45
2023-02-21T14:46:48.288Z,40
2023-02-21T14:49:18.988Z,41
2023-02-21T14:51:49.828Z,41
2023-02-21T14:54:19.889Z,38
2023-02-21T14:56:50.548Z,41
2023-02-21T14:59:21.424Z,39
2023-02-21T15:01:51.747Z,42
2023-02-21T15:04:22.196Z,43
2023-02-21T15:06:52.584Z,40
2023-02-21T15:09:22.819Z,36
2023-02-21T15:11:53.525Z,37
2023-02-21T15:14:23.814Z,40
2023-02-21T15:16:54.426Z,38
2023-02-21T15:19:24.478Z,38
2023-02-21T15:21:54.649Z,35
2023-02-21T15:24:25.212Z,29
2023-02-21T15:26:55.254Z,33
2023-02-21T15:29:26.089Z,30
2023-02-21T15:31:56.815Z,37
2023-02-21T15:34:26.774Z,30
2023-02-21T15:36:57.074Z,29
2023-02-21T15:39:27.072Z,26
2023-02-21T15:41:57.296Z,33
2023-02-21T15:44:27.975Z,33
2023-02-21T15:46:57.968Z,33
2023-02-21T15:49:28.255Z,28
2023-02-21T15:51:58.326Z,32
2023-02-21T15:54:28.469Z,31
2023-02-21T15:56:58.549Z,25
2023-02-21T15:59:29.074Z,32
2023-02-21T16:01:59.394Z,26
2023-02-21T16:04:29.552Z,34
2023-02-21T16:07:00.236Z,25
2023-02-21T16:09:30.544Z,37
2023-02-21T16:12:01.004Z,31
2023-02-21T16:14:31.756Z,24
2023-02-21T16:17:01.677Z,28
2023-02-21T16:19:32.214Z,26
2023-02-21T16:22:02.454Z,31
2023-02-21T16:24:33.204Z,28
2023-02-21T16:27:03.468Z,31
2023-02-21T16:29:34.285Z,30
2023-02-21T16:32:05.184Z,33
2023-02-21T16:34:35.991Z,34
2023-02-21T16:37:06.815Z,32
2023-02-21T16:39:37.025Z,31
2023-02-21T16:42:07.629Z,30
2023-02-21T16:44:38.272Z,33
2023-02-21T16:47:08.662Z,30
2023-02-21T16:49:39.217Z,32
2023-02-21T16:52:09.190Z,30
2023-02-21T16:54:39.964Z,30
2023-02-21T16:57:10.379Z,29
2023-02-21T16:59:40.939Z,30
2023-02-21T17:02:11.458Z,32
2023-02-21T17:04:42.453Z,31
2023-02-21T17:07:12.986Z,29
2023-02-21T17:09:43.758Z,32
2023-02-21T17:12:14.472Z,36
2023-02-21T17:14:44.445Z,34
2023-02-21T17:17:14.590Z,27
2023-02-21T17:19:44.992Z,30
2023-02-21T17:22:15.862Z,31
2023-02-21T17:24:46.548Z,29
2023-02-21T17:27:17.217Z,35
2023-02-21T17:29:47.716Z,33
2023-02-21T17:32:18.137Z,36
2023-02-21T17:34:48.310Z,31
2023-02-21T17:37:18.438Z,35
2023-02-21T17:39:48.573Z,36
2023-02-21T17:42:19.116Z,33
2023-02-21T17:44:49.696Z,32
2023-02-21T17:47:19.950Z,29
2023-02-21T17:49:50.666Z,27
2023-02-21T17:52:21.549Z,26
2023-02-21T17:54:52.200Z,31
2023-02-21T17:57:22.983Z,30
2023-02-21T17:59:52.982Z,26
2023-02-21T18:02:23.227Z,33
2023-02-21T18:04:53.734Z,26
2023-02-21T18:07:24.389Z,30
2023-02-21T18:09:55.042Z,34
2023-02-21T18:12:25.864Z,28
2023-02-21T18:14:56.338Z,28
2023-02-21T18:17:26.954Z,30
2023-02-21T18:19:57.400Z,30
2023-02-21T18:22:28.089Z,30
2023-02-21T18:24:58.178Z,35
2023-02-21T18:27:28.881Z,30
2023-02-21T18:29:59.324Z,29
2023-02-21T18:32:29.473Z,29
2023-02-21T18:34:59.897Z,27
2023-02-21T18:37:30.739Z,25
2023-02-21T18:40:01.135Z,27
2023-02-21T18:42:31.701Z,27
2023-02-21T18:45:02.477Z,25
2023-02-21T18:47:33.258Z,24
2023-02-21T18:50:03.395Z,21
2023-02-21T18:52:34.060Z,22
2023-02-21T18:55:04.854Z,25
2023-02-21T18:57:35.492Z,26
2023-02-21T19:00:05.412Z,16
2023-02-21T19:02:35.993Z,21
2023-02-21T19:05:06.750Z,20
2023-02-21T19:07:37.054Z,18
2023-02-21T19:10:07.319Z,20
2023-02-21T19:12:37.987Z,24
2023-02-21T19:15:08.410Z,22
2023-02-21T19:17:38.733Z,18
2023-02-21T19:20:09.417Z,22
2023-02-21T19:22:39.796Z,19
2023-02-21T19:25:09.940Z,23
2023-02-21T19:27:40.050Z,19
2023-02-21T19:30:10.396Z,18
2023-02-21T19:32:40.850Z,23
2023-02-21T19:35:11.134Z,22
2023-02-21T19:37:41.652Z,20
2023-02-21T19:40:12.216Z,20
2023-02-21T19:42:42.808Z,19
2023-02-21T19:45:13.040Z,26
2023-02-21T19:47:43.784Z,23
2023-02-21T19:50:14.000Z,19
2023-02-21T19:52:44.262Z,19
2023-02-21T19:55:14.227Z,20
2023-02-21T19:57:45.031Z,21
2023-02-21T20:00:15.549Z,25
2023-02-21T20:02:45.802Z,23
2023-02-21T20:05:16.394Z,23
2023-02-21T20:07:46.986Z,24
2023-02-21T20:10:18.261Z,20
2023-02-21T20:12:48.026Z,27
2023-02-21T20:15:18.043Z,20
2023-02-21T20:17:48.084Z,20
2023-02-21T20:20:18.534Z,20
2023-02-21T20:22:49.325Z,27
2023-02-21T20:25:19.953Z,19
2023-02-21T20:27:50.326Z,27
2023-02-21T20:30:20.582Z,31
2023-02-21T20:32:51.311Z,35
2023-02-21T20:35:21.887Z,36
2023-02-21T20:37:52.214Z,29
2023-02-21T20:40:22.263Z,26
2023-02-21T20:42:52.666Z,28
2023-02-21T20:45:22.700Z,22
2023-02-21T20:47:53.074Z,24
2023-02-21T20:50:23.322Z,26
2023-02-21T20:52:53.592Z,30
2023-02-21T20:55:24.188Z,26
2023-02-21T20:57:54.497Z,22
2023-02-21T21:00:25.169Z,30
2023-02-21T21:02:55.702Z,24
2023-02-21T21:05:26.201Z,27
2023-02-21T21:07:56.501Z,24
2023-02-21T21:10:27.085Z,25
2023-02-21T21:12:57.327Z,28
2023-02-21T21:15:27.893Z,27
2023-02-21T21:17:58.478Z,31
2023-02-21T21:20:29.199Z,29
2023-02-21T21:23:00.021Z,26
2023-02-21T21:25:30.470Z,28
2023-02-21T21:28:01.109Z,27
2023-02-21T21:30:31.956Z,28
2023-02-21T21:33:02.212Z,28
2023-02-21T21:35:32.744Z,33
2023-02-21T21:38:03.293Z,37
2023-02-21T21:40:33.892Z,30
2023-02-21T21:43:04.674Z,36
2023-02-21T21:45:35.146Z,40
2023-02-21T21:48:05.232Z,32
2023-02-21T21:50:35.774Z,34
2023-02-21T21:53:05.935Z,39
2023-02-21T21:55:36.211Z,35
2023-02-21T21:58:06.277Z,35
2023-02-21T22:00:37.123Z,34
2023-02-21T22:03:07.681Z,34
2023-02-21T22:05:37.671Z,37
2023-02-21T22:08:07.827Z,29
2023-02-21T22:10:38.379Z,38
2023-02-21T22:13:08.730Z,36
2023-02-21T22:15:39.633Z,31
2023-02-21T22:18:10.033Z,30
2023-02-21T22:20:40.417Z,31
2023-02-21T22:23:11.251Z,28
2023-02-21T22:25:41.705Z,30
2023-02-21T22:28:12.578Z,25
2023-02-21T22:30:43.530Z,29
2023-02-21T22:33:13.975Z,29
2023-02-21T22:35:44.652Z,32
2023-02-21T22:38:15.564Z,31
2023-02-21T22:40:46.332Z,34
2023-02-21T22:43:16.678Z,35
2023-02-21T22:45:46.922Z,31
2023-02-21T22:48:20.160Z,34
2023-02-21T22:50:47.611Z,35
2023-02-21T22:53:18.376Z,34
2023-02-21T22:55:51.249Z,39
2023-02-21T22:58:18.969Z,33
2023-02-21T23:00:50.053Z,32
2023-02-21T23:03:20.535Z,34
2023-02-21T23:05:50.978Z,38
2023-02-21T23:08:21.310Z,37
2023-02-21T23:10:51.841Z,29
2023-02-21T23:13:22.186Z,31
2023-02-21T23:15:55.432Z,31
2023-02-21T23:18:23.562Z,36
2023-02-21T23:20:54.185Z,35
2023-02-21T23:23:25.026Z,30
2023-02-21T23:25:55.888Z,37
2023-02-21T23:28:26.407Z,33
2023-02-21T23:30:56.817Z,38
2023-02-21T23:33:27.148Z,39
2023-02-21T23:35:57.378Z,34
2023-02-21T23:38:27.589Z,37
2023-02-21T23:40:57.659Z,35
2023-02-21T23:43:28.019Z,30
2023-02-21T23:45:58.348Z,32
2023-02-21T23:48:28.632Z,35
2023-02-21T23:50:59.301Z,32
2023-02-21T23:53:29.973Z,43
2023-02-21T23:56:00.513Z,37
2023-02-21T23:58:31.169Z,36
